Willow Valley, Indiana
Current Conditions -  °F | °C
As of 10:35 PM on Wednesday 22 Oct 2014 (Local Time) from KDCY Reporting Station
Clear Clear  
Wind Chill:   Ceiling: Unl
Heat Index:   Visibility: 10mi
Dew Point:   Wind: 0mph
Humidity: 95%   Direction: NA
Pressure: 30.25"   Gusts: NA
Location:  38.6262°N, 86.7615°W
Report Text: KDCY 230335Z AUTO 00000KT 10SM CLR 05/04 A3025 RMK AO2 T00520044
Loading
Personal Weather Stations






























Interactive Weather Map
Tropical Storm Tracking
New forecast layout! Learn more

10-Day Weather Forecast

Advertisements
Track Severe Weather on mobile